sensor_id;sensor_type;location;lat;lon;timestamp;pressure;altitude;pressure_sealevel;temperature;humidity
21588;BME280;10956;48.878;13.316;2023-04-26T00:02:09;93975.34;;;5.06;100.00
21588;BME280;10956;48.878;13.316;2023-04-26T00:04:36;93969.34;;;5.05;100.00
21588;BME280;10956;48.878;13.316;2023-04-26T00:07:01;93963.63;;;5.08;100.00
21588;BME280;10956;48.878;13.316;2023-04-26T00:09:27;93968.53;;;5.05;100.00
21588;BME280;10956;48.878;13.316;2023-04-26T00:11:53;93958.88;;;5.05;100.00
21588;BME280;10956;48.878;13.316;2023-04-26T00:14:18;93968.22;;;5.01;100.00
21588;BME280;10956;48.878;13.316;2023-04-26T00:16:43;93959.50;;;4.96;100.00
21588;BME280;10956;48.878;13.316;2023-04-26T00:19:09;93960.00;;;4.93;100.00
21588;BME280;10956;48.878;13.316;2023-04-26T00:21:34;93958.31;;;4.86;100.00
21588;BME280;10956;48.878;13.316;2023-04-26T00:24:01;93943.59;;;4.80;100.00
21588;BME280;10956;48.878;13.316;2023-04-26T00:26:26;93941.94;;;4.74;100.00
21588;BME280;10956;48.878;13.316;2023-04-26T00:28:51;93953.00;;;4.65;100.00
21588;BME280;10956;48.878;13.316;2023-04-26T00:31:17;93954.06;;;4.52;100.00
21588;BME280;10956;48.878;13.316;2023-04-26T00:33:42;93954.34;;;4.39;100.00
21588;BME280;10956;48.878;13.316;2023-04-26T00:36:08;93963.00;;;4.28;100.00
21588;BME280;10956;48.878;13.316;2023-04-26T00:38:34;93953.50;;;4.21;100.00
21588;BME280;10956;48.878;13.316;2023-04-26T00:40:59;93954.28;;;4.22;100.00
21588;BME280;10956;48.878;13.316;2023-04-26T00:43:25;93956.00;;;4.16;100.00
21588;BME280;10956;48.878;13.316;2023-04-26T00:45:50;93950.47;;;4.13;100.00
21588;BME280;10956;48.878;13.316;2023-04-26T00:48:16;93950.13;;;4.09;100.00
21588;BME280;10956;48.878;13.316;2023-04-26T00:50:42;93963.88;;;4.05;100.00
21588;BME280;10956;48.878;13.316;2023-04-26T00:53:08;93963.53;;;4.01;100.00
21588;BME280;10956;48.878;13.316;2023-04-26T00:55:34;93963.06;;;4.04;100.00
21588;BME280;10956;48.878;13.316;2023-04-26T00:58:00;93962.63;;;4.07;100.00
21588;BME280;10956;48.878;13.316;2023-04-26T01:00:25;93963.63;;;4.06;100.00
21588;BME280;10956;48.878;13.316;2023-04-26T01:02:51;93962.50;;;4.02;100.00
21588;BME280;10956;48.878;13.316;2023-04-26T01:05:17;93964.56;;;4.00;100.00
21588;BME280;10956;48.878;13.316;2023-04-26T01:07:44;93967.84;;;3.96;100.00
21588;BME280;10956;48.878;13.316;2023-04-26T01:10:10;93961.75;;;3.90;100.00
21588;BME280;10956;48.878;13.316;2023-04-26T01:12:37;93960.63;;;3.86;100.00
21588;BME280;10956;48.878;13.316;2023-04-26T01:15:04;93967.22;;;3.77;100.00
21588;BME280;10956;48.878;13.316;2023-04-26T01:17:29;93972.09;;;3.73;100.00
21588;BME280;10956;48.878;13.316;2023-04-26T01:19:55;93973.34;;;3.71;100.00
21588;BME280;10956;48.878;13.316;2023-04-26T01:22:21;93968.13;;;3.71;100.00
21588;BME280;10956;48.878;13.316;2023-04-26T01:24:50;93972.88;;;3.74;100.00
21588;BME280;10956;48.878;13.316;2023-04-26T01:27:16;93978.75;;;3.81;100.00
21588;BME280;10956;48.878;13.316;2023-04-26T01:29:41;93974.69;;;3.85;100.00
21588;BME280;10956;48.878;13.316;2023-04-26T01:32:07;93974.78;;;3.90;100.00
21588;BME280;10956;48.878;13.316;2023-04-26T01:34:33;93979.31;;;3.95;100.00
21588;BME280;10956;48.878;13.316;2023-04-26T01:36:59;93982.72;;;3.95;100.00
21588;BME280;10956;48.878;13.316;2023-04-26T01:39:25;93984.84;;;3.98;100.00
21588;BME280;10956;48.878;13.316;2023-04-26T01:41:51;93983.28;;;3.97;100.00
21588;BME280;10956;48.878;13.316;2023-04-26T01:44:16;93985.66;;;3.99;100.00
21588;BME280;10956;48.878;13.316;2023-04-26T01:46:42;93989.03;;;3.99;100.00
21588;BME280;10956;48.878;13.316;2023-04-26T01:49:07;93982.25;;;3.98;100.00
21588;BME280;10956;48.878;13.316;2023-04-26T01:51:33;93989.28;;;3.98;100.00
21588;BME280;10956;48.878;13.316;2023-04-26T01:53:58;93989.50;;;3.96;100.00
21588;BME280;10956;48.878;13.316;2023-04-26T01:56:24;93988.47;;;3.97;100.00
21588;BME280;10956;48.878;13.316;2023-04-26T01:58:49;93990.88;;;3.99;100.00
21588;BME280;10956;48.878;13.316;2023-04-26T02:01:15;93986.44;;;3.99;100.00
21588;BME280;10956;48.878;13.316;2023-04-26T02:03:41;93982.03;;;4.00;100.00
21588;BME280;10956;48.878;13.316;2023-04-26T02:06:06;93988.03;;;4.00;100.00
21588;BME280;10956;48.878;13.316;2023-04-26T02:08:32;93988.47;;;3.97;100.00
21588;BME280;10956;48.878;13.316;2023-04-26T02:10:58;93992.25;;;3.89;100.00
21588;BME280;10956;48.878;13.316;2023-04-26T02:13:23;93990.88;;;3.87;100.00
21588;BME280;10956;48.878;13.316;2023-04-26T02:15:49;93990.09;;;3.86;100.00
21588;BME280;10956;48.878;13.316;2023-04-26T02:18:15;93980.44;;;3.87;100.00
21588;BME280;10956;48.878;13.316;2023-04-26T02:20:42;93986.22;;;3.89;100.00
21588;BME280;10956;48.878;13.316;2023-04-26T02:23:11;93982.94;;;3.94;100.00
21588;BME280;10956;48.878;13.316;2023-04-26T02:25:37;93983.41;;;3.91;100.00
21588;BME280;10956;48.878;13.316;2023-04-26T02:28:04;93978.88;;;3.86;100.00
21588;BME280;10956;48.878;13.316;2023-04-26T02:30:29;93977.97;;;3.80;100.00
21588;BME280;10956;48.878;13.316;2023-04-26T02:32:55;93975.38;;;3.80;100.00
21588;BME280;10956;48.878;13.316;2023-04-26T02:35:21;93970.38;;;3.79;100.00
21588;BME280;10956;48.878;13.316;2023-04-26T02:37:47;93967.66;;;3.74;100.00
21588;BME280;10956;48.878;13.316;2023-04-26T02:40:19;93973.22;;;3.66;100.00
21588;BME280;10956;48.878;13.316;2023-04-26T02:42:45;93982.19;;;3.58;100.00
21588;BME280;10956;48.878;13.316;2023-04-26T02:45:10;93979.69;;;3.51;100.00
21588;BME280;10956;48.878;13.316;2023-04-26T02:47:36;93983.78;;;3.47;100.00
21588;BME280;10956;48.878;13.316;2023-04-26T02:50:06;93982.19;;;3.46;100.00
21588;BME280;10956;48.878;13.316;2023-04-26T02:52:33;93981.50;;;3.39;100.00
21588;BME280;10956;48.878;13.316;2023-04-26T02:54:58;93981.97;;;3.36;100.00
21588;BME280;10956;48.878;13.316;2023-04-26T02:57:25;93978.78;;;3.34;100.00
21588;BME280;10956;48.878;13.316;2023-04-26T02:59:50;93990.09;;;3.28;100.00
21588;BME280;10956;48.878;13.316;2023-04-26T03:02:16;93993.03;;;3.20;100.00
21588;BME280;10956;48.878;13.316;2023-04-26T03:04:41;93990.53;;;3.13;100.00
21588;BME280;10956;48.878;13.316;2023-04-26T03:07:06;93988.16;;;3.12;100.00
21588;BME280;10956;48.878;13.316;2023-04-26T03:09:32;93987.59;;;3.10;100.00
21588;BME280;10956;48.878;13.316;2023-04-26T03:11:58;93996.06;;;3.05;100.00
21588;BME280;10956;48.878;13.316;2023-04-26T03:14:24;93984.97;;;2.98;100.00
21588;BME280;10956;48.878;13.316;2023-04-26T03:16:49;93993.34;;;3.00;100.00
21588;BME280;10956;48.878;13.316;2023-04-26T03:19:14;93997.31;;;3.03;100.00
21588;BME280;10956;48.878;13.316;2023-04-26T03:21:40;93996.06;;;3.05;100.00
21588;BME280;10956;48.878;13.316;2023-04-26T03:24:05;93987.03;;;3.08;100.00
21588;BME280;10956;48.878;13.316;2023-04-26T03:26:32;93992.78;;;3.10;100.00
21588;BME280;10956;48.878;13.316;2023-04-26T03:28:57;93990.06;;;3.05;100.00
21588;BME280;10956;48.878;13.316;2023-04-26T03:31:23;93988.50;;;3.04;100.00
21588;BME280;10956;48.878;13.316;2023-04-26T03:33:48;93987.34;;;3.00;100.00
21588;BME280;10956;48.878;13.316;2023-04-26T03:36:14;93985.53;;;3.00;100.00
21588;BME280;10956;48.878;13.316;2023-04-26T03:38:39;93997.41;;;2.96;100.00
21588;BME280;10956;48.878;13.316;2023-04-26T03:41:05;93993.44;;;2.94;100.00
21588;BME280;10956;48.878;13.316;2023-04-26T03:43:30;93991.88;;;2.92;100.00
21588;BME280;10956;48.878;13.316;2023-04-26T03:45:56;93997.84;;;2.93;100.00
21588;BME280;10956;48.878;13.316;2023-04-26T03:48:21;94001.81;;;2.96;100.00
21588;BME280;10956;48.878;13.316;2023-04-26T03:50:47;93998.78;;;2.99;100.00
21588;BME280;10956;48.878;13.316;2023-04-26T03:53:12;94001.81;;;2.96;100.00
21588;BME280;10956;48.878;13.316;2023-04-26T03:55:38;94000.47;;;2.93;100.00
21588;BME280;10956;48.878;13.316;2023-04-26T03:58:03;93998.53;;;2.88;100.00
21588;BME280;10956;48.878;13.316;2023-04-26T04:00:33;94002.59;;;2.84;100.00
21588;BME280;10956;48.878;13.316;2023-04-26T04:02:59;93996.47;;;2.79;100.00
21588;BME280;10956;48.878;13.316;2023-04-26T04:05:24;94002.91;;;2.76;100.00
21588;BME280;10956;48.878;13.316;2023-04-26T04:07:50;94004.28;;;2.79;100.00
21588;BME280;10956;48.878;13.316;2023-04-26T04:10:16;94004.63;;;2.82;100.00
21588;BME280;10956;48.878;13.316;2023-04-26T04:12:41;94003.72;;;2.88;100.00
21588;BME280;10956;48.878;13.316;2023-04-26T04:15:07;94006.00;;;2.97;100.00
21588;BME280;10956;48.878;13.316;2023-04-26T04:17:33;94004.31;;;3.02;100.00
21588;BME280;10956;48.878;13.316;2023-04-26T04:19:58;94010.00;;;3.11;100.00
21588;BME280;10956;48.878;13.316;2023-04-26T04:22:23;94015.00;;;3.24;100.00
21588;BME280;10956;48.878;13.316;2023-04-26T04:24:49;94013.56;;;3.40;100.00
21588;BME280;10956;48.878;13.316;2023-04-26T04:27:15;94016.50;;;3.55;100.00
21588;BME280;10956;48.878;13.316;2023-04-26T04:29:40;94023.75;;;3.65;100.00
21588;BME280;10956;48.878;13.316;2023-04-26T04:32:06;94024.88;;;3.80;100.00
21588;BME280;10956;48.878;13.316;2023-04-26T04:34:34;94030.09;;;3.92;100.00
21588;BME280;10956;48.878;13.316;2023-04-26T04:37:03;94026.34;;;4.00;100.00
21588;BME280;10956;48.878;13.316;2023-04-26T04:39:29;94031.66;;;4.05;100.00
21588;BME280;10956;48.878;13.316;2023-04-26T04:41:55;94029.50;;;4.13;100.00
21588;BME280;10956;48.878;13.316;2023-04-26T04:44:22;94036.28;;;4.14;100.00
21588;BME280;10956;48.878;13.316;2023-04-26T04:46:48;94036.28;;;4.14;100.00
21588;BME280;10956;48.878;13.316;2023-04-26T04:49:13;94036.53;;;4.13;100.00
21588;BME280;10956;48.878;13.316;2023-04-26T04:51:40;94049.66;;;4.18;100.00
21588;BME280;10956;48.878;13.316;2023-04-26T04:54:12;94048.41;;;4.32;100.00
21588;BME280;10956;48.878;13.316;2023-04-26T04:56:37;94051.63;;;4.51;100.00
21588;BME280;10956;48.878;13.316;2023-04-26T04:59:03;94059.91;;;4.60;100.00
21588;BME280;10956;48.878;13.316;2023-04-26T05:01:30;94059.19;;;4.64;100.00
21588;BME280;10956;48.878;13.316;2023-04-26T05:03:57;94058.84;;;4.72;100.00
21588;BME280;10956;48.878;13.316;2023-04-26T05:06:22;94052.22;;;4.81;100.00
21588;BME280;10956;48.878;13.316;2023-04-26T05:08:48;94055.03;;;4.92;100.00
21588;BME280;10956;48.878;13.316;2023-04-26T05:11:13;94053.69;;;5.06;100.00
21588;BME280;10956;48.878;13.316;2023-04-26T05:13:39;94052.28;;;5.15;100.00
21588;BME280;10956;48.878;13.316;2023-04-26T05:16:04;94060.31;;;5.25;100.00
21588;BME280;10956;48.878;13.316;2023-04-26T05:18:30;94059.03;;;5.28;100.00
21588;BME280;10956;48.878;13.316;2023-04-26T05:20:56;94051.75;;;5.30;100.00
21588;BME280;10956;48.878;13.316;2023-04-26T05:23:22;94062.44;;;5.28;100.00
21588;BME280;10956;48.878;13.316;2023-04-26T05:25:47;94066.72;;;5.17;100.00
21588;BME280;10956;48.878;13.316;2023-04-26T05:28:13;94062.56;;;5.05;100.00
21588;BME280;10956;48.878;13.316;2023-04-26T05:30:38;94061.81;;;4.93;100.00
21588;BME280;10956;48.878;13.316;2023-04-26T05:33:05;94067.50;;;4.90;100.00
21588;BME280;10956;48.878;13.316;2023-04-26T05:35:31;94079.44;;;4.85;100.00
21588;BME280;10956;48.878;13.316;2023-04-26T05:37:56;94074.13;;;4.80;100.00
21588;BME280;10956;48.878;13.316;2023-04-26T05:40:22;94076.41;;;4.77;100.00
21588;BME280;10956;48.878;13.316;2023-04-26T05:42:48;94082.00;;;4.69;100.00
21588;BME280;10956;48.878;13.316;2023-04-26T05:45:13;94091.56;;;4.63;100.00
21588;BME280;10956;48.878;13.316;2023-04-26T05:47:39;94088.38;;;4.61;100.00
21588;BME280;10956;48.878;13.316;2023-04-26T05:50:05;94086.31;;;4.63;100.00
21588;BME280;10956;48.878;13.316;2023-04-26T05:52:31;94095.25;;;4.79;100.00
21588;BME280;10956;48.878;13.316;2023-04-26T05:54:56;94089.97;;;5.19;100.00
21588;BME280;10956;48.878;13.316;2023-04-26T05:57:21;94089.25;;;5.69;100.00
21588;BME280;10956;48.878;13.316;2023-04-26T05:59:47;94080.69;;;6.07;100.00
21588;BME280;10956;48.878;13.316;2023-04-26T06:02:12;94084.31;;;6.23;100.00
21588;BME280;10956;48.878;13.316;2023-04-26T06:04:38;94093.47;;;6.42;100.00
21588;BME280;10956;48.878;13.316;2023-04-26T06:07:03;94100.91;;;6.50;100.00
21588;BME280;10956;48.878;13.316;2023-04-26T06:09:30;94104.56;;;6.49;100.00
21588;BME280;10956;48.878;13.316;2023-04-26T06:11:56;94106.22;;;6.55;100.00
21588;BME280;10956;48.878;13.316;2023-04-26T06:14:21;94103.53;;;6.72;100.00
21588;BME280;10956;48.878;13.316;2023-04-26T06:16:47;94109.31;;;6.96;100.00
21588;BME280;10956;48.878;13.316;2023-04-26T06:19:12;94109.25;;;7.12;99.93
21588;BME280;10956;48.878;13.316;2023-04-26T06:21:38;94102.81;;;7.25;98.82
21588;BME280;10956;48.878;13.316;2023-04-26T06:24:03;94096.34;;;7.33;97.57
21588;BME280;10956;48.878;13.316;2023-04-26T06:26:29;94101.78;;;7.26;96.48
21588;BME280;10956;48.878;13.316;2023-04-26T06:28:55;94109.34;;;7.23;96.28
21588;BME280;10956;48.878;13.316;2023-04-26T06:31:21;94105.00;;;7.33;96.23
21588;BME280;10956;48.878;13.316;2023-04-26T06:33:47;94105.09;;;7.43;95.84
21588;BME280;10956;48.878;13.316;2023-04-26T06:36:12;94112.06;;;7.60;95.10
21588;BME280;10956;48.878;13.316;2023-04-26T06:38:38;94105.88;;;7.71;94.12
21588;BME280;10956;48.878;13.316;2023-04-26T06:41:03;94109.03;;;7.73;92.80
21588;BME280;10956;48.878;13.316;2023-04-26T06:43:29;94110.13;;;7.77;92.69
21588;BME280;10956;48.878;13.316;2023-04-26T06:45:54;94117.94;;;7.72;92.08
21588;BME280;10956;48.878;13.316;2023-04-26T06:48:20;94117.34;;;7.65;92.14
21588;BME280;10956;48.878;13.316;2023-04-26T06:50:45;94120.22;;;7.63;91.42
21588;BME280;10956;48.878;13.316;2023-04-26T06:53:10;94127.06;;;7.64;91.08
21588;BME280;10956;48.878;13.316;2023-04-26T06:55:36;94119.53;;;7.73;90.36
21588;BME280;10956;48.878;13.316;2023-04-26T06:58:01;94123.06;;;7.89;89.32
21588;BME280;10956;48.878;13.316;2023-04-26T07:00:27;94132.22;;;7.86;88.52
21588;BME280;10956;48.878;13.316;2023-04-26T07:02:54;94120.53;;;7.67;88.74
21588;BME280;10956;48.878;13.316;2023-04-26T07:05:19;94126.66;;;7.51;90.12
21588;BME280;10956;48.878;13.316;2023-04-26T07:07:45;94123.88;;;7.35;91.28
21588;BME280;10956;48.878;13.316;2023-04-26T07:10:10;94123.25;;;7.23;92.50
21588;BME280;10956;48.878;13.316;2023-04-26T07:12:36;94134.75;;;7.22;93.17
21588;BME280;10956;48.878;13.316;2023-04-26T07:15:02;94136.28;;;7.18;93.18
21588;BME280;10956;48.878;13.316;2023-04-26T07:17:28;94133.31;;;6.88;87.87
21588;BME280;10956;48.878;13.316;2023-04-26T07:19:53;94141.97;;;6.66;86.76
21588;BME280;10956;48.878;13.316;2023-04-26T07:22:19;94132.44;;;6.60;86.88
21588;BME280;10956;48.878;13.316;2023-04-26T07:24:44;94132.00;;;6.46;86.23
21588;BME280;10956;48.878;13.316;2023-04-26T07:27:10;94133.22;;;6.39;86.86
21588;BME280;10956;48.878;13.316;2023-04-26T07:29:35;94136.94;;;6.43;87.47
21588;BME280;10956;48.878;13.316;2023-04-26T07:32:00;94132.63;;;6.54;88.96
21588;BME280;10956;48.878;13.316;2023-04-26T07:34:26;94132.59;;;6.70;88.40
21588;BME280;10956;48.878;13.316;2023-04-26T07:36:51;94120.78;;;6.90;87.19
21588;BME280;10956;48.878;13.316;2023-04-26T07:39:17;94135.81;;;7.21;85.73
21588;BME280;10956;48.878;13.316;2023-04-26T07:41:42;94129.13;;;7.35;86.59
21588;BME280;10956;48.878;13.316;2023-04-26T07:44:09;94131.91;;;7.51;87.52
21588;BME280;10956;48.878;13.316;2023-04-26T07:46:35;94128.44;;;7.72;85.87
21588;BME280;10956;48.878;13.316;2023-04-26T07:49:00;94130.59;;;7.80;84.53
21588;BME280;10956;48.878;13.316;2023-04-26T07:51:26;94125.75;;;7.67;84.92
21588;BME280;10956;48.878;13.316;2023-04-26T07:53:51;94127.41;;;7.73;85.00
21588;BME280;10956;48.878;13.316;2023-04-26T07:56:17;94118.69;;;7.99;81.08
21588;BME280;10956;48.878;13.316;2023-04-26T07:58:42;94125.59;;;8.10;80.28
21588;BME280;10956;48.878;13.316;2023-04-26T08:01:08;94123.00;;;8.16;80.34
21588;BME280;10956;48.878;13.316;2023-04-26T08:03:35;94119.50;;;8.37;77.46
21588;BME280;10956;48.878;13.316;2023-04-26T08:06:01;94119.06;;;8.50;76.05
21588;BME280;10956;48.878;13.316;2023-04-26T08:08:27;94115.84;;;8.38;76.42
21588;BME280;10956;48.878;13.316;2023-04-26T08:10:53;94123.50;;;8.13;75.27
21588;BME280;10956;48.878;13.316;2023-04-26T08:13:19;94117.59;;;7.95;75.17
21588;BME280;10956;48.878;13.316;2023-04-26T08:15:45;94122.78;;;7.85;76.15
21588;BME280;10956;48.878;13.316;2023-04-26T08:18:10;94125.06;;;7.76;74.35
21588;BME280;10956;48.878;13.316;2023-04-26T08:20:37;94124.69;;;7.63;74.33
21588;BME280;10956;48.878;13.316;2023-04-26T08:23:02;94118.34;;;7.59;72.01
21588;BME280;10956;48.878;13.316;2023-04-26T08:25:28;94106.91;;;7.70;72.92
21588;BME280;10956;48.878;13.316;2023-04-26T08:27:53;94114.69;;;7.60;70.59
21588;BME280;10956;48.878;13.316;2023-04-26T08:30:19;94117.84;;;7.35;68.31
21588;BME280;10956;48.878;13.316;2023-04-26T08:32:45;94110.25;;;7.33;69.72
21588;BME280;10956;48.878;13.316;2023-04-26T08:35:11;94118.44;;;7.42;69.90
21588;BME280;10956;48.878;13.316;2023-04-26T08:37:36;94124.09;;;7.56;69.85
21588;BME280;10956;48.878;13.316;2023-04-26T08:40:03;94123.38;;;7.65;68.73
21588;BME280;10956;48.878;13.316;2023-04-26T08:42:30;94124.34;;;7.86;69.37
21588;BME280;10956;48.878;13.316;2023-04-26T08:44:59;94114.22;;;8.00;67.07
21588;BME280;10956;48.878;13.316;2023-04-26T08:47:51;94118.69;;;7.99;70.05
21588;BME280;10956;48.878;13.316;2023-04-26T08:50:21;94111.06;;;7.98;68.68
21588;BME280;10956;48.878;13.316;2023-04-26T08:52:49;94115.66;;;8.18;70.77
21588;BME280;10956;48.878;13.316;2023-04-26T08:55:15;94110.06;;;8.41;70.96
21588;BME280;10956;48.878;13.316;2023-04-26T08:57:42;94113.81;;;8.50;74.04
21588;BME280;10956;48.878;13.316;2023-04-26T09:00:10;94113.28;;;8.53;75.64
21588;BME280;10956;48.878;13.316;2023-04-26T09:02:41;94121.16;;;8.48;77.26
21588;BME280;10956;48.878;13.316;2023-04-26T09:05:09;94114.41;;;8.67;78.81
21588;BME280;10956;48.878;13.316;2023-04-26T09:10:05;94124.41;;;9.33;75.05
21588;BME280;10956;48.878;13.316;2023-04-26T09:12:32;94128.88;;;9.37;72.39
21588;BME280;10956;48.878;13.316;2023-04-26T09:14:57;94123.59;;;9.27;70.22
21588;BME280;10956;48.878;13.316;2023-04-26T09:17:34;94113.06;;;9.27;67.68
21588;BME280;10956;48.878;13.316;2023-04-26T09:20:01;94121.50;;;9.29;64.22
21588;BME280;10956;48.878;13.316;2023-04-26T09:22:41;94129.38;;;9.24;65.12
21588;BME280;10956;48.878;13.316;2023-04-26T09:25:06;94120.41;;;9.15;66.22
21588;BME280;10956;48.878;13.316;2023-04-26T09:27:38;94121.91;;;8.96;65.94
21588;BME280;10956;48.878;13.316;2023-04-26T09:33:02;94115.34;;;8.98;65.64
21588;BME280;10956;48.878;13.316;2023-04-26T09:35:32;94113.06;;;9.22;66.21
21588;BME280;10956;48.878;13.316;2023-04-26T09:38:10;94123.13;;;9.51;64.99
21588;BME280;10956;48.878;13.316;2023-04-26T09:40:40;94111.03;;;9.50;60.95
21588;BME280;10956;48.878;13.316;2023-04-26T09:43:14;94126.81;;;9.50;60.45
21588;BME280;10956;48.878;13.316;2023-04-26T09:45:56;94124.63;;;9.26;59.01
21588;BME280;10956;48.878;13.316;2023-04-26T09:48:30;94124.59;;;9.11;59.67
21588;BME280;10956;48.878;13.316;2023-04-26T09:53:39;94120.06;;;8.91;61.14
21588;BME280;10956;48.878;13.316;2023-04-26T09:56:18;94119.22;;;8.81;62.88
21588;BME280;10956;48.878;13.316;2023-04-26T10:01:18;94104.44;;;9.42;68.00
21588;BME280;10956;48.878;13.316;2023-04-26T10:03:44;94105.25;;;9.58;65.78
21588;BME280;10956;48.878;13.316;2023-04-26T10:06:13;94116.28;;;9.50;62.55
21588;BME280;10956;48.878;13.316;2023-04-26T10:08:39;94116.81;;;9.57;60.45
21588;BME280;10956;48.878;13.316;2023-04-26T10:11:04;94115.25;;;9.71;58.73
21588;BME280;10956;48.878;13.316;2023-04-26T10:13:32;94117.38;;;9.79;58.96
21588;BME280;10956;48.878;13.316;2023-04-26T10:15:58;94112.66;;;9.91;58.24
21588;BME280;10956;48.878;13.316;2023-04-26T10:18:24;94108.97;;;10.02;57.33
21588;BME280;10956;48.878;13.316;2023-04-26T10:20:52;94116.84;;;10.13;57.35
21588;BME280;10956;48.878;13.316;2023-04-26T10:23:22;94103.16;;;10.11;57.98
21588;BME280;10956;48.878;13.316;2023-04-26T10:25:50;94107.63;;;10.15;60.37
21588;BME280;10956;48.878;13.316;2023-04-26T10:28:17;94110.03;;;10.32;62.40
21588;BME280;10956;48.878;13.316;2023-04-26T10:30:56;94104.72;;;10.52;61.86
21588;BME280;10956;48.878;13.316;2023-04-26T10:33:23;94105.22;;;10.64;61.51
21588;BME280;10956;48.878;13.316;2023-04-26T10:36:03;94109.13;;;10.82;61.03
21588;BME280;10956;48.878;13.316;2023-04-26T10:38:29;94114.69;;;10.71;58.56
21588;BME280;10956;48.878;13.316;2023-04-26T10:40:55;94118.66;;;10.63;58.64
21588;BME280;10956;48.878;13.316;2023-04-26T10:43:27;94110.53;;;10.49;60.36
21588;BME280;10956;48.878;13.316;2023-04-26T10:45:52;94110.00;;;10.47;62.25
21588;BME280;10956;48.878;13.316;2023-04-26T10:48:27;94113.44;;;10.43;62.01
21588;BME280;10956;48.878;13.316;2023-04-26T10:59:12;94107.31;;;10.73;61.42
21588;BME280;10956;48.878;13.316;2023-04-26T11:01:39;94093.00;;;10.94;59.66
21588;BME280;10956;48.878;13.316;2023-04-26T11:04:11;94100.31;;;11.07;59.59
21588;BME280;10956;48.878;13.316;2023-04-26T11:06:53;94093.97;;;11.13;59.14
21588;BME280;10956;48.878;13.316;2023-04-26T11:09:36;94090.78;;;11.16;58.07
21588;BME280;10956;48.878;13.316;2023-04-26T11:12:12;94086.00;;;11.23;57.07
21588;BME280;10956;48.878;13.316;2023-04-26T11:14:38;94078.06;;;11.28;56.11
21588;BME280;10956;48.878;13.316;2023-04-26T11:17:05;94083.28;;;11.39;56.39
21588;BME280;10956;48.878;13.316;2023-04-26T11:19:32;94080.13;;;11.37;56.10
21588;BME280;10956;48.878;13.316;2023-04-26T11:21:58;94086.00;;;11.23;57.11
21588;BME280;10956;48.878;13.316;2023-04-26T11:24:34;94089.41;;;11.29;57.43
21588;BME280;10956;48.878;13.316;2023-04-26T11:27:10;94083.38;;;11.18;56.91
21588;BME280;10956;48.878;13.316;2023-04-26T11:29:36;94092.41;;;11.07;56.80
21588;BME280;10956;48.878;13.316;2023-04-26T11:32:01;94077.63;;;11.11;56.04
21588;BME280;10956;48.878;13.316;2023-04-26T11:34:31;94082.88;;;11.16;56.50
21588;BME280;10956;48.878;13.316;2023-04-26T11:36:57;94087.13;;;11.07;56.23
21588;BME280;10956;48.878;13.316;2023-04-26T11:39:23;94086.63;;;11.05;56.79
21588;BME280;10956;48.878;13.316;2023-04-26T11:41:49;94070.28;;;11.03;56.99
21588;BME280;10956;48.878;13.316;2023-04-26T11:44:18;94077.72;;;10.91;57.40
21588;BME280;10956;48.878;13.316;2023-04-26T11:46:46;94081.44;;;10.80;58.14
21588;BME280;10956;48.878;13.316;2023-04-26T11:49:12;94085.69;;;10.76;58.41
21588;BME280;10956;48.878;13.316;2023-04-26T11:51:38;94083.56;;;10.78;57.58
21588;BME280;10956;48.878;13.316;2023-04-26T11:54:04;94079.59;;;10.85;58.13
21588;BME280;10956;48.878;13.316;2023-04-26T11:56:29;94082.91;;;11.11;57.95
21588;BME280;10956;48.878;13.316;2023-04-26T11:58:55;94094.94;;;11.32;57.56
21588;BME280;10956;48.878;13.316;2023-04-26T12:01:26;94086.69;;;11.44;56.79
21588;BME280;10956;48.878;13.316;2023-04-26T12:03:54;94092.19;;;11.48;57.30
21588;BME280;10956;48.878;13.316;2023-04-26T12:06:28;94085.03;;;11.53;58.36
21588;BME280;10956;48.878;13.316;2023-04-26T12:08:55;94086.06;;;11.57;59.35
21588;BME280;10956;48.878;13.316;2023-04-26T12:11:21;94092.19;;;11.48;58.42
21588;BME280;10956;48.878;13.316;2023-04-26T12:13:46;94081.66;;;11.48;57.63
21588;BME280;10956;48.878;13.316;2023-04-26T12:16:12;94094.31;;;11.46;58.68
21588;BME280;10956;48.878;13.316;2023-04-26T12:18:39;94091.28;;;11.23;57.71
21588;BME280;10956;48.878;13.316;2023-04-26T12:21:04;94104.50;;;11.18;59.80
21588;BME280;10956;48.878;13.316;2023-04-26T12:23:38;94096.56;;;11.23;60.31
21588;BME280;10956;48.878;13.316;2023-04-26T12:26:05;94088.63;;;11.28;59.92
21588;BME280;10956;48.878;13.316;2023-04-26T12:28:31;94087.47;;;11.45;60.66
21588;BME280;10956;48.878;13.316;2023-04-26T12:30:57;94099.66;;;11.36;58.22
21588;BME280;10956;48.878;13.316;2023-04-26T12:33:22;94103.16;;;11.21;57.16
21588;BME280;10956;48.878;13.316;2023-04-26T12:35:49;94090.69;;;11.37;58.85
21588;BME280;10956;48.878;13.316;2023-04-26T12:38:15;94094.19;;;11.66;57.60
21588;BME280;10956;48.878;13.316;2023-04-26T12:40:41;94087.72;;;11.87;55.95
21588;BME280;10956;48.878;13.316;2023-04-26T12:43:07;94087.22;;;11.85;54.51
21588;BME280;10956;48.878;13.316;2023-04-26T12:45:33;94092.34;;;11.67;55.31
21588;BME280;10956;48.878;13.316;2023-04-26T12:47:59;94095.91;;;11.47;56.24
21588;BME280;10956;48.878;13.316;2023-04-26T12:50:25;94102.31;;;11.30;56.78
21588;BME280;10956;48.878;13.316;2023-04-26T12:52:51;94105.06;;;11.10;56.83
21588;BME280;10956;48.878;13.316;2023-04-26T12:55:16;94104.53;;;11.08;56.40
21588;BME280;10956;48.878;13.316;2023-04-26T12:57:43;94100.19;;;11.32;56.98
21588;BME280;10956;48.878;13.316;2023-04-26T13:00:13;94094.78;;;11.58;56.77
21588;BME280;10956;48.878;13.316;2023-04-26T13:02:39;94093.41;;;11.65;56.67
21588;BME280;10956;48.878;13.316;2023-04-26T13:05:05;94086.06;;;11.57;55.71
21588;BME280;10956;48.878;13.316;2023-04-26T13:07:38;94087.38;;;11.60;55.45
21588;BME280;10956;48.878;13.316;2023-04-26T13:10:05;94091.03;;;11.64;57.70